createdAt,value
2017-07-19T00:00:36.861Z,20.90
2017-07-19T00:03:04.310Z,20.90
2017-07-19T00:05:31.777Z,20.90
2017-07-19T00:08:00.033Z,20.90
2017-07-19T00:10:27.485Z,20.90
2017-07-19T00:12:54.949Z,20.90
2017-07-19T00:15:22.397Z,20.80
2017-07-19T00:17:49.871Z,20.80
2017-07-19T00:20:17.338Z,20.80
2017-07-19T00:22:44.794Z,20.80
2017-07-19T00:25:13.012Z,20.70
2017-07-19T00:27:40.493Z,20.70
2017-07-19T00:30:07.937Z,20.70
2017-07-19T00:32:35.398Z,20.70
2017-07-19T00:35:02.869Z,20.70
2017-07-19T00:37:30.435Z,20.80
2017-07-19T00:39:57.881Z,20.80
2017-07-19T00:42:25.329Z,20.70
2017-07-19T00:44:52.785Z,20.60
2017-07-19T00:47:20.238Z,20.60
2017-07-19T00:49:47.699Z,20.60
2017-07-19T00:52:15.154Z,20.50
2017-07-19T00:54:42.627Z,20.50
2017-07-19T00:57:10.069Z,20.50
2017-07-19T00:59:37.535Z,20.40
2017-07-19T01:02:04.985Z,20.30
2017-07-19T01:04:32.450Z,20.20
2017-07-19T01:06:59.897Z,20.20
2017-07-19T01:09:27.350Z,20.20
2017-07-19T01:11:54.798Z,20.20
2017-07-19T01:14:22.263Z,20.20
2017-07-19T01:16:49.714Z,20.20
2017-07-19T01:19:17.162Z,20.20
2017-07-19T01:21:44.655Z,20.20
2017-07-19T01:24:12.098Z,20.30
2017-07-19T01:26:39.549Z,20.30
2017-07-19T01:29:06.989Z,20.20
2017-07-19T01:31:34.445Z,20.30
2017-07-19T01:34:01.901Z,20.40
2017-07-19T01:36:29.369Z,20.40
2017-07-19T01:38:56.942Z,20.20
2017-07-19T01:41:24.390Z,20.00
2017-07-19T01:43:51.855Z,19.90
2017-07-19T01:46:19.314Z,19.80
2017-07-19T01:48:46.863Z,19.70
2017-07-19T01:51:14.422Z,19.70
2017-07-19T01:53:41.871Z,19.70
2017-07-19T01:56:09.317Z,19.70
2017-07-19T01:58:36.775Z,19.70
2017-07-19T02:01:04.218Z,19.80
2017-07-19T02:03:31.697Z,19.80
2017-07-19T02:05:59.150Z,19.90
2017-07-19T02:08:26.605Z,19.80
2017-07-19T02:10:54.041Z,19.90
2017-07-19T02:13:21.523Z,19.90
2017-07-19T02:15:48.967Z,20.10
2017-07-19T02:18:16.421Z,20.10
2017-07-19T02:20:43.882Z,20.10
2017-07-19T02:23:11.325Z,20.10
2017-07-19T02:25:38.795Z,20.10
2017-07-19T02:28:06.265Z,20.10
2017-07-19T02:30:33.718Z,20.10
2017-07-19T02:33:01.173Z,20.20
2017-07-19T02:35:28.630Z,20.30
2017-07-19T02:37:56.203Z,20.30
2017-07-19T02:40:23.750Z,20.20
2017-07-19T02:42:51.211Z,20.20
2017-07-19T02:45:18.661Z,20.20
2017-07-19T02:47:46.226Z,20.20
2017-07-19T02:50:13.673Z,20.30
2017-07-19T02:52:41.134Z,20.30
2017-07-19T02:55:08.594Z,20.20
2017-07-19T02:57:36.040Z,20.20
2017-07-19T03:00:03.490Z,20.20
2017-07-19T03:02:30.951Z,20.00
2017-07-19T03:04:58.401Z,20.00
2017-07-19T03:07:25.866Z,20.10
2017-07-19T03:09:56.204Z,20.10
2017-07-19T03:12:23.657Z,20.00
2017-07-19T03:14:51.120Z,20.00
2017-07-19T03:17:18.569Z,19.90
2017-07-19T03:19:46.030Z,20.00
2017-07-19T03:22:29.269Z,20.00
2017-07-19T03:24:57.506Z,19.80
2017-07-19T03:27:24.974Z,19.80
2017-07-19T03:29:52.425Z,19.90
2017-07-19T03:32:19.871Z,19.90
2017-07-19T03:34:47.324Z,19.90
2017-07-19T03:37:14.768Z,19.90
2017-07-19T03:39:42.238Z,20.00
2017-07-19T03:42:09.715Z,20.10
2017-07-19T03:44:37.170Z,20.20
2017-07-19T03:47:04.637Z,20.10
2017-07-19T03:49:32.082Z,20.20
2017-07-19T03:51:59.540Z,20.20
2017-07-19T03:54:26.987Z,20.20
2017-07-19T03:56:54.447Z,20.20
2017-07-19T03:59:21.890Z,20.20
2017-07-19T04:01:49.371Z,20.30
2017-07-19T04:04:16.831Z,20.30
2017-07-19T04:06:44.293Z,20.50
2017-07-19T04:09:11.743Z,20.60
2017-07-19T04:11:39.290Z,20.70
2017-07-19T04:14:06.845Z,20.70
2017-07-19T04:16:34.402Z,20.80
2017-07-19T04:19:01.854Z,20.80
2017-07-19T04:21:29.311Z,21.00
2017-07-19T04:23:56.765Z,21.10
2017-07-19T04:26:24.213Z,21.30
2017-07-19T04:28:51.691Z,21.40
2017-07-19T04:31:19.133Z,21.60
2017-07-19T04:33:46.702Z,21.70
2017-07-19T04:36:14.150Z,21.80
2017-07-19T04:38:41.615Z,22.30
2017-07-19T04:41:09.058Z,22.80
2017-07-19T04:43:36.501Z,23.10
2017-07-19T04:46:03.954Z,23.00
2017-07-19T04:48:31.450Z,22.60
2017-07-19T04:50:58.906Z,22.60
2017-07-19T04:53:26.359Z,22.70
2017-07-19T04:55:53.813Z,22.90
2017-07-19T04:58:21.261Z,22.80
2017-07-19T05:00:48.721Z,22.50
2017-07-19T05:03:16.158Z,22.40
2017-07-19T05:05:43.612Z,22.50
2017-07-19T05:08:11.059Z,22.70
2017-07-19T05:10:38.501Z,22.60
2017-07-19T05:13:06.003Z,22.60
2017-07-19T05:15:33.453Z,22.30
2017-07-19T05:18:01.014Z,22.20
2017-07-19T05:20:28.462Z,22.20
2017-07-19T05:22:55.935Z,23.20
2017-07-19T05:25:23.394Z,24.40
2017-07-19T05:27:50.853Z,24.60
2017-07-19T05:30:18.401Z,24.70
2017-07-19T05:32:45.967Z,25.30
2017-07-19T05:35:13.410Z,26.60
2017-07-19T05:37:40.863Z,26.90
2017-07-19T05:40:08.376Z,27.20
2017-07-19T05:42:35.830Z,27.60
2017-07-19T05:45:03.343Z,27.90
2017-07-19T05:47:30.790Z,28.10
2017-07-19T05:49:58.250Z,28.60
2017-07-19T05:52:25.693Z,30.20
2017-07-19T05:54:53.154Z,31.80
2017-07-19T05:57:20.627Z,32.40
2017-07-19T05:59:48.083Z,33.30
2017-07-19T06:02:15.529Z,33.80
2017-07-19T06:04:43.094Z,34.90
2017-07-19T06:07:10.554Z,36.00
2017-07-19T06:09:38.001Z,37.00
2017-07-19T06:12:05.461Z,36.70
2017-07-19T06:14:32.914Z,36.90
2017-07-19T06:17:00.365Z,37.70
2017-07-19T06:19:27.838Z,37.50
2017-07-19T06:21:55.294Z,36.80
2017-07-19T06:24:22.749Z,35.10
2017-07-19T06:26:50.310Z,34.80
2017-07-19T06:29:17.766Z,33.90
2017-07-19T06:31:45.321Z,31.10
2017-07-19T06:34:12.769Z,31.00
2017-07-19T06:36:40.212Z,31.10
2017-07-19T06:39:07.673Z,31.60
2017-07-19T06:41:35.145Z,32.00
2017-07-19T06:44:02.697Z,32.60
2017-07-19T06:46:30.156Z,33.40
2017-07-19T06:48:57.709Z,32.80
2017-07-19T06:51:25.163Z,31.60
2017-07-19T06:53:52.617Z,30.80
2017-07-19T06:56:20.067Z,29.80
2017-07-19T06:58:47.529Z,29.00
2017-07-19T07:01:14.997Z,28.50
2017-07-19T07:03:42.458Z,28.10
2017-07-19T07:06:09.899Z,27.70
2017-07-19T07:08:37.346Z,27.70
2017-07-19T07:11:04.801Z,27.50
2017-07-19T07:13:32.255Z,27.70
2017-07-19T07:15:59.713Z,27.50
2017-07-19T07:18:27.159Z,27.50
2017-07-19T07:20:54.618Z,27.70
2017-07-19T07:23:22.065Z,27.60
2017-07-19T07:25:49.525Z,27.50
2017-07-19T07:28:16.980Z,27.40
2017-07-19T07:30:44.441Z,27.10
2017-07-19T07:33:11.894Z,27.10
2017-07-19T07:35:39.377Z,27.00
2017-07-19T07:38:06.933Z,27.00
2017-07-19T07:40:34.381Z,27.10
2017-07-19T07:43:01.845Z,27.00
2017-07-19T07:45:29.297Z,27.00
2017-07-19T07:47:56.757Z,27.10
2017-07-19T07:50:24.225Z,27.00
2017-07-19T07:52:51.667Z,27.00
2017-07-19T07:55:19.129Z,26.90
2017-07-19T07:57:46.610Z,27.10
2017-07-19T08:00:14.056Z,27.60
2017-07-19T08:02:41.510Z,27.90
2017-07-19T08:05:08.957Z,28.10
2017-07-19T08:07:36.525Z,28.20
2017-07-19T08:10:03.974Z,28.20
2017-07-19T08:12:31.529Z,28.60
2017-07-19T08:14:59.090Z,28.40
2017-07-19T08:17:26.538Z,28.30
2017-07-19T08:19:54.101Z,28.10
2017-07-19T08:22:21.665Z,28.20
2017-07-19T08:24:49.118Z,28.10
2017-07-19T08:27:16.678Z,28.30
2017-07-19T08:29:44.139Z,28.60
2017-07-19T08:32:11.590Z,28.80
2017-07-19T08:34:39.051Z,28.80
2017-07-19T08:37:06.505Z,28.90
2017-07-19T08:39:33.953Z,28.70
2017-07-19T08:42:01.520Z,28.60
2017-07-19T08:44:28.957Z,28.70
2017-07-19T08:46:56.414Z,28.70
2017-07-19T08:49:23.894Z,28.70
2017-07-19T08:51:51.344Z,28.90
2017-07-19T08:54:18.801Z,28.90
2017-07-19T08:56:46.365Z,28.90
2017-07-19T08:59:13.811Z,29.10
2017-07-19T09:01:41.276Z,29.30
2017-07-19T09:04:08.731Z,29.40
2017-07-19T09:06:36.167Z,29.40
2017-07-19T09:09:03.629Z,29.30
2017-07-19T09:11:31.096Z,29.50
2017-07-19T09:13:58.546Z,29.50
2017-07-19T09:16:25.985Z,29.50
2017-07-19T09:18:53.464Z,29.40
2017-07-19T09:21:20.900Z,29.60
2017-07-19T09:23:48.357Z,29.60
2017-07-19T09:26:15.829Z,29.60
2017-07-19T09:28:43.281Z,29.60
2017-07-19T09:31:10.726Z,29.70
2017-07-19T09:33:38.296Z,29.90
2017-07-19T09:36:05.753Z,30.10
2017-07-19T09:38:33.310Z,30.20
2017-07-19T09:41:00.872Z,30.20
2017-07-19T09:43:28.428Z,30.00
2017-07-19T09:45:55.885Z,30.10
2017-07-19T09:48:23.441Z,30.10
2017-07-19T09:50:51.010Z,30.50
2017-07-19T09:53:18.462Z,30.80
2017-07-19T09:55:46.021Z,30.60
2017-07-19T09:58:13.465Z,30.60
2017-07-19T10:00:40.917Z,30.50
2017-07-19T10:03:08.393Z,30.50
2017-07-19T10:05:35.841Z,30.60
2017-07-19T10:08:03.298Z,30.80
2017-07-19T10:10:30.765Z,31.10
2017-07-19T10:12:58.210Z,30.80
2017-07-19T10:15:25.665Z,31.00
2017-07-19T10:17:53.131Z,31.00
2017-07-19T10:20:20.582Z,30.80
2017-07-19T10:22:48.143Z,31.00
2017-07-19T10:25:15.604Z,31.20
2017-07-19T10:27:43.063Z,31.20
2017-07-19T10:30:10.509Z,31.20
2017-07-19T10:32:37.965Z,31.30
2017-07-19T10:35:05.536Z,31.40
2017-07-19T10:37:32.989Z,31.50
2017-07-19T10:40:00.441Z,31.70
2017-07-19T10:42:27.901Z,31.50
2017-07-19T10:44:55.349Z,31.60
2017-07-19T10:47:22.800Z,31.80
2017-07-19T10:49:50.250Z,31.90
2017-07-19T10:52:17.707Z,32.10
2017-07-19T10:54:45.164Z,32.10
2017-07-19T10:57:12.631Z,32.40
2017-07-19T10:59:40.075Z,32.50
2017-07-19T11:02:13.309Z,32.80
2017-07-19T11:04:41.557Z,33.00
2017-07-19T11:07:09.015Z,32.90
2017-07-19T11:09:36.463Z,32.80
2017-07-19T11:12:03.917Z,32.90
2017-07-19T11:14:31.369Z,33.00
2017-07-19T11:16:58.933Z,33.10
2017-07-19T11:19:26.493Z,33.00
2017-07-19T11:21:53.973Z,33.20
2017-07-19T11:24:21.513Z,33.30
2017-07-19T11:26:48.973Z,33.40
2017-07-19T11:29:16.517Z,33.60
2017-07-19T11:31:43.961Z,33.70
2017-07-19T11:34:11.421Z,33.80
2017-07-19T11:36:38.878Z,33.60
2017-07-19T11:39:06.334Z,33.70
2017-07-19T11:41:33.773Z,33.80
2017-07-19T11:44:01.231Z,33.90
2017-07-19T11:46:28.680Z,33.80
2017-07-19T11:48:56.130Z,33.80
2017-07-19T11:51:23.635Z,33.80
2017-07-19T11:53:51.106Z,33.60
2017-07-19T11:56:18.538Z,33.90
2017-07-19T11:58:45.993Z,34.10
2017-07-19T12:01:13.433Z,34.10
2017-07-19T12:03:40.910Z,34.30
2017-07-19T12:06:08.353Z,34.40
2017-07-19T12:08:35.933Z,34.30
2017-07-19T12:11:03.382Z,34.10
2017-07-19T12:13:30.836Z,34.20
2017-07-19T12:15:58.399Z,34.20
2017-07-19T12:18:25.921Z,34.20
2017-07-19T12:20:53.409Z,34.50
2017-07-19T12:23:20.853Z,34.60
2017-07-19T12:25:48.417Z,34.50
2017-07-19T12:28:15.887Z,34.00
2017-07-19T12:30:43.338Z,34.10
2017-07-19T12:33:10.782Z,34.30
2017-07-19T12:35:38.241Z,34.50
2017-07-19T12:38:05.685Z,34.40
2017-07-19T12:40:33.169Z,34.50
2017-07-19T12:43:00.610Z,34.70
2017-07-19T12:45:28.074Z,34.80
2017-07-19T12:47:55.629Z,34.70
2017-07-19T12:50:23.092Z,34.90
2017-07-19T12:52:50.542Z,34.90
2017-07-19T12:55:18.010Z,34.90
2017-07-19T12:57:45.452Z,35.00
2017-07-19T13:00:12.901Z,35.00
2017-07-19T13:02:40.362Z,35.00
2017-07-19T13:05:07.814Z,34.80
2017-07-19T13:07:35.265Z,34.70
2017-07-19T13:10:02.747Z,34.50
2017-07-19T13:12:30.203Z,34.60
2017-07-19T13:14:57.650Z,34.80
2017-07-19T13:17:25.102Z,35.00
2017-07-19T13:19:52.661Z,35.10
2017-07-19T13:22:20.997Z,35.30
2017-07-19T13:24:48.497Z,35.50
2017-07-19T13:27:15.957Z,35.50
2017-07-19T13:29:43.481Z,35.60
2017-07-19T13:32:10.925Z,35.70
2017-07-19T13:34:38.380Z,35.90
2017-07-19T13:37:05.831Z,35.80
2017-07-19T13:39:33.283Z,35.80
2017-07-19T13:42:00.733Z,35.90
2017-07-19T13:44:28.266Z,35.80
2017-07-19T13:46:55.814Z,35.80
2017-07-19T13:49:23.269Z,35.70
2017-07-19T13:51:50.713Z,35.40
2017-07-19T13:54:18.172Z,35.30
2017-07-19T13:56:45.611Z,35.10
2017-07-19T13:59:13.059Z,35.10
2017-07-19T14:01:40.528Z,35.00
2017-07-19T14:04:07.986Z,34.80
2017-07-19T14:06:35.429Z,34.30
2017-07-19T14:09:02.881Z,34.10
2017-07-19T14:11:30.343Z,33.40
2017-07-19T14:13:57.803Z,33.10
2017-07-19T14:16:25.281Z,33.00
2017-07-19T14:18:52.733Z,33.00
2017-07-19T14:21:20.305Z,33.00
2017-07-19T14:23:47.762Z,33.00
2017-07-19T14:26:15.209Z,32.90
2017-07-19T14:28:42.657Z,32.80
2017-07-19T14:31:10.107Z,32.90
2017-07-19T14:33:37.577Z,32.70
2017-07-19T14:36:05.014Z,32.90
2017-07-19T14:38:32.488Z,32.80
2017-07-19T14:41:00.046Z,33.00
2017-07-19T14:43:27.492Z,33.40
2017-07-19T14:45:54.965Z,33.80
2017-07-19T14:48:22.409Z,34.00
2017-07-19T14:50:49.865Z,34.30
2017-07-19T14:53:17.313Z,34.50
2017-07-19T14:55:44.781Z,34.50
2017-07-19T14:58:12.230Z,34.70
2017-07-19T15:00:39.681Z,34.50
2017-07-19T15:03:07.153Z,34.70
2017-07-19T15:05:34.609Z,34.70
2017-07-19T15:08:02.180Z,34.30
2017-07-19T15:10:29.630Z,34.20
2017-07-19T15:12:57.178Z,34.10
2017-07-19T15:15:24.639Z,34.30
2017-07-19T15:17:52.087Z,34.30
2017-07-19T15:20:19.541Z,34.20
2017-07-19T15:22:46.990Z,34.20
2017-07-19T15:25:14.470Z,34.30
2017-07-19T15:27:41.930Z,34.10
2017-07-19T15:30:10.143Z,34.10
2017-07-19T15:32:37.662Z,34.10
2017-07-19T15:35:05.117Z,34.10
2017-07-19T15:37:32.574Z,33.90
2017-07-19T15:40:00.122Z,33.90
2017-07-19T15:42:27.573Z,33.80
2017-07-19T15:44:55.027Z,34.00
2017-07-19T15:47:22.498Z,33.90
2017-07-19T15:49:50.176Z,34.00
2017-07-19T15:52:17.722Z,34.00
2017-07-19T15:54:45.172Z,33.90
2017-07-19T15:57:12.633Z,33.90
2017-07-19T15:59:40.101Z,33.90
2017-07-19T16:02:07.534Z,34.00
2017-07-19T16:04:34.989Z,34.10
2017-07-19T16:07:02.442Z,34.20
2017-07-19T16:09:30.005Z,34.30
2017-07-19T16:11:57.445Z,34.10
2017-07-19T16:14:24.906Z,34.10
2017-07-19T16:16:52.382Z,34.10
2017-07-19T16:19:19.934Z,33.90
2017-07-19T16:21:47.460Z,34.00
2017-07-19T16:24:14.958Z,33.80
2017-07-19T16:26:42.414Z,33.80
2017-07-19T16:29:09.957Z,33.80
2017-07-19T16:31:37.527Z,33.80
2017-07-19T16:34:05.074Z,33.70
2017-07-19T16:36:32.541Z,33.70
2017-07-19T16:38:59.992Z,33.80
2017-07-19T16:41:27.463Z,34.00
2017-07-19T16:43:54.924Z,33.80
2017-07-19T16:46:23.151Z,33.70
2017-07-19T16:48:50.610Z,33.70
2017-07-19T16:51:18.058Z,33.80
2017-07-19T16:53:45.509Z,33.80
2017-07-19T16:56:13.037Z,33.60
2017-07-19T16:58:40.490Z,33.60
2017-07-19T17:01:08.717Z,33.30
2017-07-19T17:03:36.195Z,33.20
2017-07-19T17:06:03.750Z,33.10
2017-07-19T17:08:31.197Z,33.00
2017-07-19T17:10:58.657Z,33.10
2017-07-19T17:13:26.217Z,32.80
2017-07-19T17:15:53.773Z,32.70
2017-07-19T17:18:21.241Z,32.70
2017-07-19T17:20:48.685Z,32.60
2017-07-19T17:23:16.142Z,32.40
2017-07-19T17:25:43.618Z,32.00
2017-07-19T17:28:11.165Z,32.10
2017-07-19T17:30:38.621Z,32.10
2017-07-19T17:33:06.066Z,31.90
2017-07-19T17:35:33.624Z,31.70
2017-07-19T17:38:01.074Z,31.50
2017-07-19T17:40:28.661Z,31.40
2017-07-19T17:42:56.112Z,31.30
2017-07-19T17:45:23.576Z,31.20
2017-07-19T17:47:51.024Z,31.10
2017-07-19T17:50:18.492Z,31.10
2017-07-19T17:52:45.933Z,31.10
2017-07-19T17:55:13.388Z,31.10
2017-07-19T17:57:40.854Z,31.00
2017-07-19T18:00:08.308Z,30.90
2017-07-19T18:02:35.761Z,30.80
2017-07-19T18:05:03.212Z,30.80
2017-07-19T18:07:30.669Z,30.80
2017-07-19T18:09:58.125Z,30.80
2017-07-19T18:12:25.689Z,30.80
2017-07-19T18:14:53.128Z,30.70
2017-07-19T18:17:21.922Z,30.70
2017-07-19T18:19:49.365Z,30.60
2017-07-19T18:22:16.821Z,30.60
2017-07-19T18:24:44.302Z,30.50
2017-07-19T18:27:11.754Z,30.30
2017-07-19T18:29:39.209Z,30.20
2017-07-19T18:32:06.760Z,30.10
2017-07-19T18:34:37.002Z,30.00
2017-07-19T18:37:04.606Z,29.90
2017-07-19T18:39:32.102Z,29.90
2017-07-19T18:41:59.657Z,29.70
2017-07-19T18:44:27.138Z,29.60
2017-07-19T18:46:55.758Z,29.40
2017-07-19T18:49:23.245Z,29.20
2017-07-19T18:51:50.699Z,29.20
2017-07-19T18:54:18.164Z,29.00
2017-07-19T18:56:45.622Z,28.90
2017-07-19T18:59:13.207Z,28.70
2017-07-19T19:01:41.487Z,28.50
2017-07-19T19:04:08.926Z,28.40
2017-07-19T19:06:36.383Z,28.40
2017-07-19T19:09:04.798Z,28.30
2017-07-19T19:11:32.253Z,28.20
2017-07-19T19:13:59.709Z,28.00
2017-07-19T19:16:27.180Z,28.00
2017-07-19T19:18:54.628Z,27.80
2017-07-19T19:21:22.124Z,27.80
2017-07-19T19:23:49.594Z,27.70
2017-07-19T19:26:17.042Z,27.60
2017-07-19T19:28:44.603Z,27.60
2017-07-19T19:31:12.107Z,27.60
2017-07-19T19:33:39.559Z,27.50
2017-07-19T19:36:07.065Z,27.50
2017-07-19T19:38:34.523Z,27.50
2017-07-19T19:41:01.983Z,27.40
2017-07-19T19:43:29.438Z,27.50
2017-07-19T19:45:56.890Z,27.40
2017-07-19T19:48:24.352Z,27.50
2017-07-19T19:50:51.905Z,27.40
2017-07-19T19:53:19.357Z,27.30
2017-07-19T19:55:46.817Z,27.30
2017-07-19T19:58:14.261Z,27.20
2017-07-19T20:00:41.722Z,27.20
2017-07-19T20:03:09.182Z,27.10
2017-07-19T20:05:36.757Z,27.10
2017-07-19T20:08:04.231Z,27.10
2017-07-19T20:10:31.687Z,27.10
2017-07-19T20:12:59.920Z,27.10
2017-07-19T20:15:27.403Z,27.00
2017-07-19T20:17:54.858Z,27.10
2017-07-19T20:20:22.313Z,26.90
2017-07-19T20:22:49.778Z,27.00
2017-07-19T20:25:17.234Z,27.10
2017-07-19T20:27:44.682Z,27.00
2017-07-19T20:30:12.124Z,27.00
2017-07-19T20:32:39.693Z,27.10
2017-07-19T20:35:07.150Z,26.90
2017-07-19T20:37:34.608Z,26.90
2017-07-19T20:40:02.163Z,25.90
2017-07-19T20:42:29.639Z,24.50
2017-07-19T20:44:57.093Z,23.90
2017-07-19T20:47:24.627Z,23.60
2017-07-19T20:49:52.073Z,23.10
2017-07-19T20:52:19.558Z,22.80
2017-07-19T20:54:47.005Z,22.60
2017-07-19T20:57:14.553Z,22.40
2017-07-19T20:59:42.126Z,22.30
2017-07-19T21:02:09.574Z,22.30
2017-07-19T21:04:37.025Z,22.30
2017-07-19T21:07:04.469Z,22.30
2017-07-19T21:09:33.292Z,22.40
2017-07-19T21:12:02.314Z,22.20
2017-07-19T21:14:29.816Z,22.20
2017-07-19T21:16:57.297Z,22.20
2017-07-19T21:19:24.785Z,22.10
2017-07-19T21:21:53.034Z,22.00
2017-07-19T21:24:20.620Z,22.00
2017-07-19T21:26:48.863Z,21.90
2017-07-19T21:29:16.342Z,21.90
2017-07-19T21:31:44.626Z,21.80
2017-07-19T21:34:12.872Z,21.80
2017-07-19T21:36:40.357Z,21.80
2017-07-19T21:39:08.813Z,21.80
2017-07-19T21:41:36.392Z,21.80
2017-07-19T21:44:03.867Z,21.80
2017-07-19T21:46:31.417Z,21.80
2017-07-19T21:48:58.996Z,21.90
2017-07-19T21:51:26.510Z,21.90
2017-07-19T21:53:53.979Z,21.90
2017-07-19T21:56:22.246Z,21.90
2017-07-19T21:58:50.503Z,21.90
2017-07-19T22:02:38.777Z,22.00
2017-07-19T22:05:07.027Z,22.00
2017-07-19T22:07:34.538Z,22.00
2017-07-19T22:10:02.029Z,21.90
2017-07-19T22:12:29.511Z,21.80
2017-07-19T22:14:57.780Z,21.80
2017-07-19T22:17:25.267Z,21.80
2017-07-19T22:19:52.753Z,21.70
2017-07-19T22:22:20.240Z,21.70
2017-07-19T22:24:47.727Z,21.60
2017-07-19T22:27:16.011Z,21.40
2017-07-19T22:29:44.280Z,21.40
2017-07-19T22:32:12.559Z,21.30
2017-07-19T22:34:40.828Z,21.20
2017-07-19T22:37:09.067Z,21.30
2017-07-19T22:39:36.558Z,21.20
2017-07-19T22:42:04.820Z,21.20
2017-07-19T22:44:32.387Z,21.20
2017-07-19T22:47:00.668Z,21.20
2017-07-19T22:49:28.944Z,21.20
2017-07-19T22:51:57.197Z,20.90
2017-07-19T22:54:24.780Z,20.90
2017-07-19T22:56:53.034Z,20.30
2017-07-19T22:59:20.512Z,20.30
2017-07-19T23:01:48.789Z,20.00
2017-07-19T23:04:17.044Z,19.90
2017-07-19T23:06:44.550Z,19.90
2017-07-19T23:09:12.035Z,19.80
2017-07-19T23:11:39.518Z,19.80
2017-07-19T23:14:07.011Z,19.80
2017-07-19T23:16:34.499Z,19.90
2017-07-19T23:19:02.010Z,19.90
2017-07-19T23:21:29.555Z,19.90
2017-07-19T23:23:57.849Z,19.90
2017-07-19T23:26:25.387Z,19.80
2017-07-19T23:28:53.641Z,19.80
2017-07-19T23:31:21.232Z,19.80
2017-07-19T23:33:49.500Z,19.70
2017-07-19T23:36:17.779Z,19.70
2017-07-19T23:38:46.023Z,19.70
2017-07-19T23:41:13.511Z,19.70
2017-07-19T23:43:41.761Z,19.60
2017-07-19T23:46:09.247Z,19.60
2017-07-19T23:48:37.502Z,19.70
2017-07-19T23:51:04.991Z,19.70
2017-07-19T23:53:32.471Z,19.60
2017-07-19T23:55:59.996Z,19.60
2017-07-19T23:58:28.246Z,19.50
